Aktuální počasí v Česku a ve světě - METAR

Seznam meteostanic umístěných nejčasteji na letišti v ČR a ve světě

Vyhledat místa podle abecedy:
A B C D E F G H I J K L M N O P Q R S T U V W X Y Z

Filtrovat:

ID stanice:
a/nebo
Název místa (fulltext):
 
Místo (ID)Naposledy načteno 
Rarotonga I (NCRG) 24.02.2024 10:00 UTC Zobrazit METAR
NCRG 241000Z AUTO 19001KT 9999 SCT024/// BKN042/// 25/25 Q1010
Reykjavik (BIRK) 24.02.2024 10:00 UTC Zobrazit METAR
BIRK 241000Z 14003KT 080V210 9999 FEW025 BKN170 M03/M06 Q0996
Riga (EVRA) 24.02.2024 09:50 UTC Zobrazit METAR
EVRA 240950Z 14008KT 110V170 4200 -RA BR OVC002 06/06 Q1003 NOSIG
Rimini (LIPR) 24.02.2024 09:50 UTC Zobrazit METAR
LIPR 240950Z 19009KT 9999 FEW040 12/05 Q1008
Riyadh (OERY) 28.02.2022 07:00 UTC Zobrazit METAR
OERY 280700Z 03010KT CAVOK 19/M01 Q1023
Road Town (TUPJ) 24.02.2024 02:00 UTC Zobrazit METAR
TUPJ 240200Z 09005KT 10SM FEW028 24/17 A3004 RMK Q1017 VIS16KM
Rodos (LGRP) 24.02.2024 09:50 UTC Zobrazit METAR
LGRP 240950Z 25008KT 9999 FEW016 18/12 Q1022 NOSIG
Rome (LIRF) 24.02.2024 09:50 UTC Zobrazit METAR
LIRF 240950Z 18006KT 150V210 9999 FEW025 SCT035 14/06 Q1011 NOSIG
Roseau (TDCF) 23.02.2024 20:00 UTC Zobrazit METAR
TDCF 232000Z 29002KT 9999 SCT018 30/22 Q1012
Rotterdam (EHRD) 24.02.2024 09:55 UTC Zobrazit METAR
EHRD 240955Z AUTO 20011KT 170V240 9999 SCT015/// BKN019/// OVC025/// 05/03 Q0996 NOSIG
Rzeszow (EPRZ) 24.02.2024 10:00 UTC Zobrazit METAR
EPRZ 241000Z 19015KT CAVOK 13/04 Q1006
Reklama

Krásné fotografie přírody - (nejen) tapety na pozadí do počítače

Článek
Fotogalerie jarních květin
13. dubna 2023 12:19
Článek
Fotografie slunečné zimní krajiny
7. prosince 2022 17:13
Článek
Obrázky na téma slunečno
25. srpna 2022 05:03
Článek
Obrázky květin
5. června 2022 12:12

Vyhledat
Přidejte si Počasí Slunečno na svůj Facebook
Facebook Počasí Slunečno.cz
Aplikace pro Windows 10/11 nebo chytré mobilní telefony
Stáhněte si aplikaci Slunečno.cz na Microsoft Store Stáhněte si aplikaci Slunečno.cz na Google Play